Ashland, Wisconsin
Current Conditions -  °F | °C
As of 11:53 PM on Wednesday 22 Oct 2014 (Local Time) from KASX Reporting Station
Overcast Overcast  
Wind Chill: 12°   Ceiling: 7000
Heat Index: 12°   Visibility: 10mi
Dew Point:   Wind: 9mph
Humidity: 50%   Direction: 180°S
Pressure: 30.06"   Gusts: NA
Location:  46.59°N, 90.89°W
Report Text: KASX 230453Z AUTO 18008KT 10SM SCT039 OVC070 12/02 A3006 RMK AO2 SLP184 T01170017
Loading
Personal Weather Stations






























Interactive Weather Map New forecast layout! Learn more

10-Day Weather Forecast

Advertisements
Track Severe Weather on mobile